Main page
METAR-TAF:

METAR-TAF

Airports :

Grosse Ile Municipal Airport

Detroit / Grosse Ile, Michigan, United States

latitude: 42-05-55N, longitude: 083-09-40W, elevation: 590 ft

Current weather observation

The report was made 18 minutes ago, at 18:55 UTC
Wind 10 mph from the North with gusts up to 16 mph
Temperature 43°F
Humidity 49%
Pressure 30.21 in. Hg
Visibility: 10 miles
Overcast at a height of 3000 ft

METAR: KONZ 241855Z AUTO 01009G14KT 10SM OVC030 06/M04 A3021 RMK AO2 T00611041

Time: 15:13 (19:13 UTC)


TAF: missing

Weather observations and forecasts of more than 4000 airports (METAR and TAF reports).

The available stations are represented by yellow and red dots on the map.

Hover mouse over dot to see the name of the station.

Then click to see weather observations and forecasts.

To change the map : click on the green buttons with a black cross to zoom in, on the green button with a dash to zoom out, or on the green arrows for adjacent maps.


METAR-TAF: